sensor_id;sensor_type;location;lat;lon;timestamp;temperature;humidity
32428;DHT22;18882;50.952;4.366;2023-11-22T00:02:16;5.50;99.90
32428;DHT22;18882;50.952;4.366;2023-11-22T00:04:42;5.40;99.90
32428;DHT22;18882;50.952;4.366;2023-11-22T00:07:07;5.40;99.90
32428;DHT22;18882;50.952;4.366;2023-11-22T00:09:33;5.40;99.90
32428;DHT22;18882;50.952;4.366;2023-11-22T00:11:58;5.30;99.90
32428;DHT22;18882;50.952;4.366;2023-11-22T00:14:25;5.30;99.90
32428;DHT22;18882;50.952;4.366;2023-11-22T00:16:51;5.30;99.90
32428;DHT22;18882;50.952;4.366;2023-11-22T00:19:17;5.20;99.90
32428;DHT22;18882;50.952;4.366;2023-11-22T00:21:47;5.30;99.90
32428;DHT22;18882;50.952;4.366;2023-11-22T00:24:13;5.30;99.90
32428;DHT22;18882;50.952;4.366;2023-11-22T00:26:39;5.20;99.90
32428;DHT22;18882;50.952;4.366;2023-11-22T00:29:04;5.20;99.90
32428;DHT22;18882;50.952;4.366;2023-11-22T00:31:30;5.20;99.90
32428;DHT22;18882;50.952;4.366;2023-11-22T00:33:56;5.20;99.90
32428;DHT22;18882;50.952;4.366;2023-11-22T00:36:22;5.20;99.90
32428;DHT22;18882;50.952;4.366;2023-11-22T00:38:47;5.20;99.90
32428;DHT22;18882;50.952;4.366;2023-11-22T00:41:13;5.10;99.90
32428;DHT22;18882;50.952;4.366;2023-11-22T00:43:42;5.10;99.90
32428;DHT22;18882;50.952;4.366;2023-11-22T00:46:08;5.10;99.90
32428;DHT22;18882;50.952;4.366;2023-11-22T00:48:33;5.00;99.90
32428;DHT22;18882;50.952;4.366;2023-11-22T00:50:59;5.00;99.90
32428;DHT22;18882;50.952;4.366;2023-11-22T00:53:24;5.10;99.90
32428;DHT22;18882;50.952;4.366;2023-11-22T00:55:50;5.00;99.90
32428;DHT22;18882;50.952;4.366;2023-11-22T00:58:16;5.00;99.90
32428;DHT22;18882;50.952;4.366;2023-11-22T01:00:41;5.00;99.90
32428;DHT22;18882;50.952;4.366;2023-11-22T01:03:07;5.00;99.90
32428;DHT22;18882;50.952;4.366;2023-11-22T01:05:37;4.90;99.90
32428;DHT22;18882;50.952;4.366;2023-11-22T01:08:03;5.00;99.90
32428;DHT22;18882;50.952;4.366;2023-11-22T01:10:28;4.90;99.90
32428;DHT22;18882;50.952;4.366;2023-11-22T01:12:55;4.90;99.90
32428;DHT22;18882;50.952;4.366;2023-11-22T01:15:21;4.90;99.90
32428;DHT22;18882;50.952;4.366;2023-11-22T01:17:47;4.90;99.90
32428;DHT22;18882;50.952;4.366;2023-11-22T01:20:12;4.80;99.90
32428;DHT22;18882;50.952;4.366;2023-11-22T01:22:39;4.80;99.90
32428;DHT22;18882;50.952;4.366;2023-11-22T01:25:05;4.80;99.90
32428;DHT22;18882;50.952;4.366;2023-11-22T01:27:31;4.70;99.90
32428;DHT22;18882;50.952;4.366;2023-11-22T01:29:56;4.80;99.90
32428;DHT22;18882;50.952;4.366;2023-11-22T01:32:22;4.80;99.90
32428;DHT22;18882;50.952;4.366;2023-11-22T01:34:48;4.80;99.90
32428;DHT22;18882;50.952;4.366;2023-11-22T01:37:14;4.80;99.90
32428;DHT22;18882;50.952;4.366;2023-11-22T01:39:40;4.80;99.90
32428;DHT22;18882;50.952;4.366;2023-11-22T01:42:07;4.80;99.90
32428;DHT22;18882;50.952;4.366;2023-11-22T01:44:33;4.80;99.90
32428;DHT22;18882;50.952;4.366;2023-11-22T01:46:58;4.70;99.90
32428;DHT22;18882;50.952;4.366;2023-11-22T01:49:24;4.70;99.90
32428;DHT22;18882;50.952;4.366;2023-11-22T01:51:50;4.80;99.90
32428;DHT22;18882;50.952;4.366;2023-11-22T01:54:17;4.80;99.90
32428;DHT22;18882;50.952;4.366;2023-11-22T01:56:44;4.90;99.90
32428;DHT22;18882;50.952;4.366;2023-11-22T01:59:11;4.90;99.90
32428;DHT22;18882;50.952;4.366;2023-11-22T02:01:36;4.80;99.90
32428;DHT22;18882;50.952;4.366;2023-11-22T02:04:02;4.80;99.90
32428;DHT22;18882;50.952;4.366;2023-11-22T02:06:28;4.90;99.90
32428;DHT22;18882;50.952;4.366;2023-11-22T02:08:56;5.10;99.90
32428;DHT22;18882;50.952;4.366;2023-11-22T02:11:22;5.00;99.90
32428;DHT22;18882;50.952;4.366;2023-11-22T02:13:50;5.20;99.90
32428;DHT22;18882;50.952;4.366;2023-11-22T02:16:18;5.30;99.90
32428;DHT22;18882;50.952;4.366;2023-11-22T02:18:45;5.40;99.90
32428;DHT22;18882;50.952;4.366;2023-11-22T02:21:11;5.30;99.90
32428;DHT22;18882;50.952;4.366;2023-11-22T02:23:37;5.40;99.90
32428;DHT22;18882;50.952;4.366;2023-11-22T02:26:02;5.40;99.90
32428;DHT22;18882;50.952;4.366;2023-11-22T02:28:28;5.40;99.90
32428;DHT22;18882;50.952;4.366;2023-11-22T02:30:54;5.30;99.90
32428;DHT22;18882;50.952;4.366;2023-11-22T02:33:22;5.30;99.90
32428;DHT22;18882;50.952;4.366;2023-11-22T02:35:48;5.20;99.90
32428;DHT22;18882;50.952;4.366;2023-11-22T02:38:15;5.20;99.90
32428;DHT22;18882;50.952;4.366;2023-11-22T02:40:43;5.30;99.90
32428;DHT22;18882;50.952;4.366;2023-11-22T02:43:09;5.20;99.90
32428;DHT22;18882;50.952;4.366;2023-11-22T02:45:37;5.30;99.90
32428;DHT22;18882;50.952;4.366;2023-11-22T02:48:04;5.30;99.90
32428;DHT22;18882;50.952;4.366;2023-11-22T02:50:35;5.20;99.90
32428;DHT22;18882;50.952;4.366;2023-11-22T02:53:02;5.30;99.90
32428;DHT22;18882;50.952;4.366;2023-11-22T02:55:29;5.40;99.90
32428;DHT22;18882;50.952;4.366;2023-11-22T02:57:55;5.30;99.90
32428;DHT22;18882;50.952;4.366;2023-11-22T03:00:20;5.40;99.90
32428;DHT22;18882;50.952;4.366;2023-11-22T03:02:46;5.30;99.90
32428;DHT22;18882;50.952;4.366;2023-11-22T03:05:13;5.20;99.90
32428;DHT22;18882;50.952;4.366;2023-11-22T03:07:41;5.20;99.90
32428;DHT22;18882;50.952;4.366;2023-11-22T03:10:07;5.20;99.90
32428;DHT22;18882;50.952;4.366;2023-11-22T03:12:33;5.10;99.90
32428;DHT22;18882;50.952;4.366;2023-11-22T03:14:59;5.20;99.90
32428;DHT22;18882;50.952;4.366;2023-11-22T03:17:27;5.10;99.90
32428;DHT22;18882;50.952;4.366;2023-11-22T03:19:56;5.10;99.90
32428;DHT22;18882;50.952;4.366;2023-11-22T03:22:26;5.00;99.90
32428;DHT22;18882;50.952;4.366;2023-11-22T03:24:53;5.00;99.90
32428;DHT22;18882;50.952;4.366;2023-11-22T03:27:19;4.90;99.90
32428;DHT22;18882;50.952;4.366;2023-11-22T03:29:47;4.90;99.90
32428;DHT22;18882;50.952;4.366;2023-11-22T03:32:13;4.90;99.90
32428;DHT22;18882;50.952;4.366;2023-11-22T03:34:39;4.90;99.90
32428;DHT22;18882;50.952;4.366;2023-11-22T03:37:05;4.90;99.90
32428;DHT22;18882;50.952;4.366;2023-11-22T03:39:30;4.80;99.90
32428;DHT22;18882;50.952;4.366;2023-11-22T03:41:56;4.70;99.90
32428;DHT22;18882;50.952;4.366;2023-11-22T03:44:22;4.70;99.90
32428;DHT22;18882;50.952;4.366;2023-11-22T03:46:48;4.60;99.90
32428;DHT22;18882;50.952;4.366;2023-11-22T03:49:14;4.40;99.90
32428;DHT22;18882;50.952;4.366;2023-11-22T03:51:41;4.10;99.90
32428;DHT22;18882;50.952;4.366;2023-11-22T03:54:07;4.00;99.90
32428;DHT22;18882;50.952;4.366;2023-11-22T03:56:33;4.20;99.90
32428;DHT22;18882;50.952;4.366;2023-11-22T03:58:59;4.40;99.90
32428;DHT22;18882;50.952;4.366;2023-11-22T04:01:24;4.40;99.90
32428;DHT22;18882;50.952;4.366;2023-11-22T04:03:50;4.50;99.90
32428;DHT22;18882;50.952;4.366;2023-11-22T04:06:17;4.50;99.90
32428;DHT22;18882;50.952;4.366;2023-11-22T04:08:43;4.60;99.90
32428;DHT22;18882;50.952;4.366;2023-11-22T04:11:10;4.80;99.90
32428;DHT22;18882;50.952;4.366;2023-11-22T04:13:36;4.80;99.90
32428;DHT22;18882;50.952;4.366;2023-11-22T04:16:01;4.90;99.90
32428;DHT22;18882;50.952;4.366;2023-11-22T04:18:27;4.90;99.90
32428;DHT22;18882;50.952;4.366;2023-11-22T04:20:53;4.80;99.90
32428;DHT22;18882;50.952;4.366;2023-11-22T04:23:18;4.80;99.90
32428;DHT22;18882;50.952;4.366;2023-11-22T04:25:44;4.90;99.90
32428;DHT22;18882;50.952;4.366;2023-11-22T04:28:10;4.90;99.90
32428;DHT22;18882;50.952;4.366;2023-11-22T04:30:36;4.90;99.90
32428;DHT22;18882;50.952;4.366;2023-11-22T04:33:01;4.90;99.90
32428;DHT22;18882;50.952;4.366;2023-11-22T04:35:27;4.90;99.90
32428;DHT22;18882;50.952;4.366;2023-11-22T04:37:53;4.90;99.90
32428;DHT22;18882;50.952;4.366;2023-11-22T04:40:20;4.90;99.90
32428;DHT22;18882;50.952;4.366;2023-11-22T04:42:47;4.90;99.90
32428;DHT22;18882;50.952;4.366;2023-11-22T04:45:13;5.00;99.90
32428;DHT22;18882;50.952;4.366;2023-11-22T04:47:39;5.00;99.90
32428;DHT22;18882;50.952;4.366;2023-11-22T04:50:05;5.10;99.90
32428;DHT22;18882;50.952;4.366;2023-11-22T04:52:32;5.10;99.90
32428;DHT22;18882;50.952;4.366;2023-11-22T04:54:58;5.10;99.90
32428;DHT22;18882;50.952;4.366;2023-11-22T04:57:23;5.20;99.90
32428;DHT22;18882;50.952;4.366;2023-11-22T04:59:49;5.20;99.90
32428;DHT22;18882;50.952;4.366;2023-11-22T05:02:15;5.30;99.90
32428;DHT22;18882;50.952;4.366;2023-11-22T05:04:41;5.30;99.90
32428;DHT22;18882;50.952;4.366;2023-11-22T05:07:08;5.30;99.90
32428;DHT22;18882;50.952;4.366;2023-11-22T05:09:34;5.30;99.90
32428;DHT22;18882;50.952;4.366;2023-11-22T05:12:00;5.30;99.90
32428;DHT22;18882;50.952;4.366;2023-11-22T05:14:25;5.40;99.90
32428;DHT22;18882;50.952;4.366;2023-11-22T05:16:52;5.40;99.90
32428;DHT22;18882;50.952;4.366;2023-11-22T05:19:17;5.40;99.90
32428;DHT22;18882;50.952;4.366;2023-11-22T05:21:43;5.40;99.90
32428;DHT22;18882;50.952;4.366;2023-11-22T05:24:09;5.40;99.90
32428;DHT22;18882;50.952;4.366;2023-11-22T05:26:34;5.40;99.90
32428;DHT22;18882;50.952;4.366;2023-11-22T05:29:00;5.40;99.90
32428;DHT22;18882;50.952;4.366;2023-11-22T05:31:26;5.40;99.90
32428;DHT22;18882;50.952;4.366;2023-11-22T05:33:51;5.40;99.90
32428;DHT22;18882;50.952;4.366;2023-11-22T05:36:17;5.40;99.90
32428;DHT22;18882;50.952;4.366;2023-11-22T05:38:42;5.40;99.90
32428;DHT22;18882;50.952;4.366;2023-11-22T05:41:08;5.40;99.90
32428;DHT22;18882;50.952;4.366;2023-11-22T05:43:34;5.40;99.90
32428;DHT22;18882;50.952;4.366;2023-11-22T05:46:03;5.40;99.90
32428;DHT22;18882;50.952;4.366;2023-11-22T05:48:28;5.50;99.90
32428;DHT22;18882;50.952;4.366;2023-11-22T05:50:54;5.50;99.90
32428;DHT22;18882;50.952;4.366;2023-11-22T05:53:20;5.60;99.90
32428;DHT22;18882;50.952;4.366;2023-11-22T05:55:49;5.50;99.90
32428;DHT22;18882;50.952;4.366;2023-11-22T05:58:16;5.50;99.90
32428;DHT22;18882;50.952;4.366;2023-11-22T06:00:45;5.50;99.90
32428;DHT22;18882;50.952;4.366;2023-11-22T06:03:11;5.50;99.90
32428;DHT22;18882;50.952;4.366;2023-11-22T06:05:38;5.50;99.90
32428;DHT22;18882;50.952;4.366;2023-11-22T06:08:05;5.50;99.90
32428;DHT22;18882;50.952;4.366;2023-11-22T06:10:30;5.60;99.90
32428;DHT22;18882;50.952;4.366;2023-11-22T06:12:56;5.60;99.90
32428;DHT22;18882;50.952;4.366;2023-11-22T06:15:22;5.70;99.90
32428;DHT22;18882;50.952;4.366;2023-11-22T06:17:48;5.80;99.90
32428;DHT22;18882;50.952;4.366;2023-11-22T06:20:15;5.90;99.90
32428;DHT22;18882;50.952;4.366;2023-11-22T06:22:40;5.90;99.90
32428;DHT22;18882;50.952;4.366;2023-11-22T06:25:16;5.70;99.90
32428;DHT22;18882;50.952;4.366;2023-11-22T06:27:42;5.60;99.90
32428;DHT22;18882;50.952;4.366;2023-11-22T06:30:08;5.40;99.90
32428;DHT22;18882;50.952;4.366;2023-11-22T06:32:36;5.60;99.90
32428;DHT22;18882;50.952;4.366;2023-11-22T06:35:02;5.50;99.90
32428;DHT22;18882;50.952;4.366;2023-11-22T06:37:28;5.50;99.90
32428;DHT22;18882;50.952;4.366;2023-11-22T06:39:54;5.80;99.90
32428;DHT22;18882;50.952;4.366;2023-11-22T06:42:19;6.10;99.90
32428;DHT22;18882;50.952;4.366;2023-11-22T06:44:45;5.90;99.90
32428;DHT22;18882;50.952;4.366;2023-11-22T06:47:13;5.60;99.90
32428;DHT22;18882;50.952;4.366;2023-11-22T06:49:39;5.40;99.90
32428;DHT22;18882;50.952;4.366;2023-11-22T06:52:05;5.40;99.90
32428;DHT22;18882;50.952;4.366;2023-11-22T06:54:30;5.50;99.90
32428;DHT22;18882;50.952;4.366;2023-11-22T06:56:57;5.90;99.90
32428;DHT22;18882;50.952;4.366;2023-11-22T06:59:22;6.00;99.90
32428;DHT22;18882;50.952;4.366;2023-11-22T07:01:48;5.90;99.90
32428;DHT22;18882;50.952;4.366;2023-11-22T07:04:14;5.70;99.90
32428;DHT22;18882;50.952;4.366;2023-11-22T07:06:39;5.30;99.90
32428;DHT22;18882;50.952;4.366;2023-11-22T07:09:06;5.30;99.90
32428;DHT22;18882;50.952;4.366;2023-11-22T07:14:23;5.60;99.90
32428;DHT22;18882;50.952;4.366;2023-11-22T07:16:50;5.80;99.90
32428;DHT22;18882;50.952;4.366;2023-11-22T07:19:16;5.70;99.90
32428;DHT22;18882;50.952;4.366;2023-11-22T07:21:42;5.80;99.90
32428;DHT22;18882;50.952;4.366;2023-11-22T07:24:08;5.50;99.90
32428;DHT22;18882;50.952;4.366;2023-11-22T07:26:34;5.30;99.90
32428;DHT22;18882;50.952;4.366;2023-11-22T07:29:00;5.30;99.90
32428;DHT22;18882;50.952;4.366;2023-11-22T07:31:26;5.60;99.90
32428;DHT22;18882;50.952;4.366;2023-11-22T07:33:51;5.70;99.90
32428;DHT22;18882;50.952;4.366;2023-11-22T07:36:17;5.70;99.90
32428;DHT22;18882;50.952;4.366;2023-11-22T07:38:46;5.90;99.90
32428;DHT22;18882;50.952;4.366;2023-11-22T07:41:13;6.00;99.90
32428;DHT22;18882;50.952;4.366;2023-11-22T07:43:39;6.10;99.90
32428;DHT22;18882;50.952;4.366;2023-11-22T07:46:08;5.90;99.90
32428;DHT22;18882;50.952;4.366;2023-11-22T07:48:38;6.00;99.90
32428;DHT22;18882;50.952;4.366;2023-11-22T07:51:06;6.10;99.90
32428;DHT22;18882;50.952;4.366;2023-11-22T07:53:33;6.00;99.90
32428;DHT22;18882;50.952;4.366;2023-11-22T07:56:00;5.80;99.90
32428;DHT22;18882;50.952;4.366;2023-11-22T07:58:33;5.80;99.90
32428;DHT22;18882;50.952;4.366;2023-11-22T08:00:59;5.90;99.90
32428;DHT22;18882;50.952;4.366;2023-11-22T08:03:26;5.90;99.90
32428;DHT22;18882;50.952;4.366;2023-11-22T08:05:52;6.10;99.90
32428;DHT22;18882;50.952;4.366;2023-11-22T08:08:22;6.10;99.90
32428;DHT22;18882;50.952;4.366;2023-11-22T08:10:48;6.20;99.90
32428;DHT22;18882;50.952;4.366;2023-11-22T08:13:15;6.30;99.90
32428;DHT22;18882;50.952;4.366;2023-11-22T08:15:47;6.40;99.90
32428;DHT22;18882;50.952;4.366;2023-11-22T08:18:13;6.40;99.90
32428;DHT22;18882;50.952;4.366;2023-11-22T08:20:38;6.50;99.90
32428;DHT22;18882;50.952;4.366;2023-11-22T08:23:04;6.40;99.90
32428;DHT22;18882;50.952;4.366;2023-11-22T08:25:32;6.20;99.90
32428;DHT22;18882;50.952;4.366;2023-11-22T08:27:57;5.70;99.90
32428;DHT22;18882;50.952;4.366;2023-11-22T08:30:23;5.20;99.90
32428;DHT22;18882;50.952;4.366;2023-11-22T08:32:49;5.10;99.90
32428;DHT22;18882;50.952;4.366;2023-11-22T08:35:19;5.10;99.90
32428;DHT22;18882;50.952;4.366;2023-11-22T08:37:45;5.00;99.90
32428;DHT22;18882;50.952;4.366;2023-11-22T08:40:13;5.30;99.90
32428;DHT22;18882;50.952;4.366;2023-11-22T08:42:41;5.50;99.90
32428;DHT22;18882;50.952;4.366;2023-11-22T08:45:08;5.80;99.90
32428;DHT22;18882;50.952;4.366;2023-11-22T08:47:34;6.10;99.90
32428;DHT22;18882;50.952;4.366;2023-11-22T08:50:00;6.40;99.90
32428;DHT22;18882;50.952;4.366;2023-11-22T08:52:29;6.20;99.90
32428;DHT22;18882;50.952;4.366;2023-11-22T08:54:56;5.80;99.90
32428;DHT22;18882;50.952;4.366;2023-11-22T08:57:22;5.70;99.90
32428;DHT22;18882;50.952;4.366;2023-11-22T08:59:47;5.80;99.90
32428;DHT22;18882;50.952;4.366;2023-11-22T09:02:14;6.00;99.90
32428;DHT22;18882;50.952;4.366;2023-11-22T09:04:41;6.30;99.90
32428;DHT22;18882;50.952;4.366;2023-11-22T09:07:07;6.50;99.90
32428;DHT22;18882;50.952;4.366;2023-11-22T09:09:33;6.70;99.90
32428;DHT22;18882;50.952;4.366;2023-11-22T09:12:00;6.80;99.90
32428;DHT22;18882;50.952;4.366;2023-11-22T09:14:26;6.50;99.90
32428;DHT22;18882;50.952;4.366;2023-11-22T09:16:52;6.40;99.90
32428;DHT22;18882;50.952;4.366;2023-11-22T09:19:24;6.60;99.90
32428;DHT22;18882;50.952;4.366;2023-11-22T09:21:51;6.80;99.90
32428;DHT22;18882;50.952;4.366;2023-11-22T09:24:16;6.80;99.90
32428;DHT22;18882;50.952;4.366;2023-11-22T09:26:42;6.80;99.90
32428;DHT22;18882;50.952;4.366;2023-11-22T09:29:09;7.00;99.90
32428;DHT22;18882;50.952;4.366;2023-11-22T09:31:39;7.10;99.90
32428;DHT22;18882;50.952;4.366;2023-11-22T09:34:05;7.20;99.90
32428;DHT22;18882;50.952;4.366;2023-11-22T09:36:30;7.10;99.90
32428;DHT22;18882;50.952;4.366;2023-11-22T09:38:59;7.10;99.90
32428;DHT22;18882;50.952;4.366;2023-11-22T09:41:25;7.10;99.90
32428;DHT22;18882;50.952;4.366;2023-11-22T09:43:53;6.90;99.90
32428;DHT22;18882;50.952;4.366;2023-11-22T09:46:19;6.90;99.90
32428;DHT22;18882;50.952;4.366;2023-11-22T09:48:48;7.10;99.90
32428;DHT22;18882;50.952;4.366;2023-11-22T09:51:26;7.10;99.90
32428;DHT22;18882;50.952;4.366;2023-11-22T09:53:56;7.20;99.90
32428;DHT22;18882;50.952;4.366;2023-11-22T09:56:24;7.30;99.90
32428;DHT22;18882;50.952;4.366;2023-11-22T09:58:55;7.30;99.90
32428;DHT22;18882;50.952;4.366;2023-11-22T10:01:22;7.40;99.90
32428;DHT22;18882;50.952;4.366;2023-11-22T10:03:48;7.40;99.90
32428;DHT22;18882;50.952;4.366;2023-11-22T10:06:14;7.40;99.90
32428;DHT22;18882;50.952;4.366;2023-11-22T10:08:43;7.50;99.90
32428;DHT22;18882;50.952;4.366;2023-11-22T10:11:16;7.40;99.90
32428;DHT22;18882;50.952;4.366;2023-11-22T10:13:51;7.40;99.90
32428;DHT22;18882;50.952;4.366;2023-11-22T10:16:18;7.40;99.90
32428;DHT22;18882;50.952;4.366;2023-11-22T10:18:48;7.50;99.90
32428;DHT22;18882;50.952;4.366;2023-11-22T10:21:27;7.40;99.90
32428;DHT22;18882;50.952;4.366;2023-11-22T10:23:55;7.40;99.90
32428;DHT22;18882;50.952;4.366;2023-11-22T10:26:22;7.50;99.90
32428;DHT22;18882;50.952;4.366;2023-11-22T10:28:51;7.50;99.90
32428;DHT22;18882;50.952;4.366;2023-11-22T10:31:16;7.50;99.90
32428;DHT22;18882;50.952;4.366;2023-11-22T10:33:42;7.60;99.90
32428;DHT22;18882;50.952;4.366;2023-11-22T10:36:08;7.70;99.90
32428;DHT22;18882;50.952;4.366;2023-11-22T10:38:34;7.80;99.90
32428;DHT22;18882;50.952;4.366;2023-11-22T10:41:04;7.90;99.90
32428;DHT22;18882;50.952;4.366;2023-11-22T10:43:31;7.80;99.90
32428;DHT22;18882;50.952;4.366;2023-11-22T10:46:02;7.90;99.90
32428;DHT22;18882;50.952;4.366;2023-11-22T10:48:48;7.90;99.90
32428;DHT22;18882;50.952;4.366;2023-11-22T10:51:14;7.90;99.90
32428;DHT22;18882;50.952;4.366;2023-11-22T10:53:48;7.90;99.90
32428;DHT22;18882;50.952;4.366;2023-11-22T10:56:20;7.90;99.90
32428;DHT22;18882;50.952;4.366;2023-11-22T10:58:52;7.80;99.90
32428;DHT22;18882;50.952;4.366;2023-11-22T11:01:23;7.90;99.90
32428;DHT22;18882;50.952;4.366;2023-11-22T11:04:09;7.70;99.90
32428;DHT22;18882;50.952;4.366;2023-11-22T11:06:37;7.40;99.90
32428;DHT22;18882;50.952;4.366;2023-11-22T11:09:04;6.80;99.90
32428;DHT22;18882;50.952;4.366;2023-11-22T11:11:36;6.60;99.90
32428;DHT22;18882;50.952;4.366;2023-11-22T11:14:03;7.10;99.90
32428;DHT22;18882;50.952;4.366;2023-11-22T11:16:32;7.50;99.90
32428;DHT22;18882;50.952;4.366;2023-11-22T11:19:00;7.90;99.90
32428;DHT22;18882;50.952;4.366;2023-11-22T11:21:27;8.10;99.90
32428;DHT22;18882;50.952;4.366;2023-11-22T11:23:52;8.30;99.90
32428;DHT22;18882;50.952;4.366;2023-11-22T11:26:21;8.40;99.90
32428;DHT22;18882;50.952;4.366;2023-11-22T11:28:48;8.50;99.90
32428;DHT22;18882;50.952;4.366;2023-11-22T11:31:14;8.50;99.90
32428;DHT22;18882;50.952;4.366;2023-11-22T11:39:01;8.90;99.90
32428;DHT22;18882;50.952;4.366;2023-11-22T11:41:28;9.00;99.90
32428;DHT22;18882;50.952;4.366;2023-11-22T11:43:56;9.10;99.90
32428;DHT22;18882;50.952;4.366;2023-11-22T11:46:40;9.10;99.90
32428;DHT22;18882;50.952;4.366;2023-11-22T11:49:07;9.20;99.90
32428;DHT22;18882;50.952;4.366;2023-11-22T11:51:33;9.20;99.90
32428;DHT22;18882;50.952;4.366;2023-11-22T11:53:59;9.00;99.90
32428;DHT22;18882;50.952;4.366;2023-11-22T11:56:25;9.00;99.90
32428;DHT22;18882;50.952;4.366;2023-11-22T11:58:55;9.00;99.90
32428;DHT22;18882;50.952;4.366;2023-11-22T12:01:22;8.70;99.90
32428;DHT22;18882;50.952;4.366;2023-11-22T12:03:49;8.90;99.90
32428;DHT22;18882;50.952;4.366;2023-11-22T12:06:18;9.20;99.90
32428;DHT22;18882;50.952;4.366;2023-11-22T12:08:44;8.90;99.90
32428;DHT22;18882;50.952;4.366;2023-11-22T12:11:10;8.20;99.90
32428;DHT22;18882;50.952;4.366;2023-11-22T12:13:37;8.10;99.90
32428;DHT22;18882;50.952;4.366;2023-11-22T12:16:14;8.20;99.90
32428;DHT22;18882;50.952;4.366;2023-11-22T12:18:44;8.70;99.90
32428;DHT22;18882;50.952;4.366;2023-11-22T12:21:10;9.00;99.90
32428;DHT22;18882;50.952;4.366;2023-11-22T12:23:39;9.10;99.90
32428;DHT22;18882;50.952;4.366;2023-11-22T12:26:13;9.30;99.90
32428;DHT22;18882;50.952;4.366;2023-11-22T12:28:40;9.30;99.90
32428;DHT22;18882;50.952;4.366;2023-11-22T12:31:09;9.40;99.90
32428;DHT22;18882;50.952;4.366;2023-11-22T12:33:36;9.50;99.90
32428;DHT22;18882;50.952;4.366;2023-11-22T12:36:03;9.50;99.90
32428;DHT22;18882;50.952;4.366;2023-11-22T12:38:29;9.60;99.90
32428;DHT22;18882;50.952;4.366;2023-11-22T12:40:57;9.60;99.90
32428;DHT22;18882;50.952;4.366;2023-11-22T12:43:23;9.60;99.90
32428;DHT22;18882;50.952;4.366;2023-11-22T12:46:01;9.50;99.90
32428;DHT22;18882;50.952;4.366;2023-11-22T12:48:28;9.60;99.90
32428;DHT22;18882;50.952;4.366;2023-11-22T12:50:56;9.60;99.90
32428;DHT22;18882;50.952;4.366;2023-11-22T12:53:22;9.50;99.90
32428;DHT22;18882;50.952;4.366;2023-11-22T12:55:51;9.60;99.90
32428;DHT22;18882;50.952;4.366;2023-11-22T12:58:17;9.60;99.90
32428;DHT22;18882;50.952;4.366;2023-11-22T13:00:44;9.50;99.90
32428;DHT22;18882;50.952;4.366;2023-11-22T13:03:11;9.40;99.90
32428;DHT22;18882;50.952;4.366;2023-11-22T13:05:41;9.30;99.90
32428;DHT22;18882;50.952;4.366;2023-11-22T13:08:11;9.30;99.90
32428;DHT22;18882;50.952;4.366;2023-11-22T13:10:49;9.20;99.90
32428;DHT22;18882;50.952;4.366;2023-11-22T13:13:20;9.10;99.90
32428;DHT22;18882;50.952;4.366;2023-11-22T13:15:46;9.10;99.90
32428;DHT22;18882;50.952;4.366;2023-11-22T13:18:12;8.90;99.90
32428;DHT22;18882;50.952;4.366;2023-11-22T13:20:37;8.80;99.90
32428;DHT22;18882;50.952;4.366;2023-11-22T13:23:06;8.60;99.90
32428;DHT22;18882;50.952;4.366;2023-11-22T13:25:33;8.60;99.90
32428;DHT22;18882;50.952;4.366;2023-11-22T13:27:59;8.70;99.90
32428;DHT22;18882;50.952;4.366;2023-11-22T13:30:25;8.70;99.90
32428;DHT22;18882;50.952;4.366;2023-11-22T13:32:52;8.80;99.90
32428;DHT22;18882;50.952;4.366;2023-11-22T13:35:18;8.90;99.90
32428;DHT22;18882;50.952;4.366;2023-11-22T13:37:45;9.00;99.90
32428;DHT22;18882;50.952;4.366;2023-11-22T13:40:12;9.10;99.90
32428;DHT22;18882;50.952;4.366;2023-11-22T13:42:45;9.10;99.90
32428;DHT22;18882;50.952;4.366;2023-11-22T13:45:14;9.20;99.90
32428;DHT22;18882;50.952;4.366;2023-11-22T13:47:47;9.30;99.90
32428;DHT22;18882;50.952;4.366;2023-11-22T13:50:14;9.20;99.90
32428;DHT22;18882;50.952;4.366;2023-11-22T13:52:50;9.20;99.90
32428;DHT22;18882;50.952;4.366;2023-11-22T13:55:17;9.20;99.90
32428;DHT22;18882;50.952;4.366;2023-11-22T13:57:51;9.00;99.90
32428;DHT22;18882;50.952;4.366;2023-11-22T14:00:18;8.80;99.90
32428;DHT22;18882;50.952;4.366;2023-11-22T14:02:51;8.90;99.90
32428;DHT22;18882;50.952;4.366;2023-11-22T14:05:18;8.70;99.90
32428;DHT22;18882;50.952;4.366;2023-11-22T14:07:44;8.60;99.90
32428;DHT22;18882;50.952;4.366;2023-11-22T14:10:10;8.70;99.90
32428;DHT22;18882;50.952;4.366;2023-11-22T14:12:37;8.60;99.90
32428;DHT22;18882;50.952;4.366;2023-11-22T14:15:03;8.60;99.90
32428;DHT22;18882;50.952;4.366;2023-11-22T14:17:32;8.60;99.90
32428;DHT22;18882;50.952;4.366;2023-11-22T14:19:58;8.60;99.90
32428;DHT22;18882;50.952;4.366;2023-11-22T14:22:24;8.80;99.90
32428;DHT22;18882;50.952;4.366;2023-11-22T14:24:50;9.00;99.90
32428;DHT22;18882;50.952;4.366;2023-11-22T14:27:20;9.10;99.90
32428;DHT22;18882;50.952;4.366;2023-11-22T14:29:46;9.10;99.90
32428;DHT22;18882;50.952;4.366;2023-11-22T14:32:16;9.30;99.90
32428;DHT22;18882;50.952;4.366;2023-11-22T14:34:42;9.30;99.90
32428;DHT22;18882;50.952;4.366;2023-11-22T14:37:11;9.20;99.90
32428;DHT22;18882;50.952;4.366;2023-11-22T14:39:38;9.10;99.90
32428;DHT22;18882;50.952;4.366;2023-11-22T14:42:04;8.90;99.90
32428;DHT22;18882;50.952;4.366;2023-11-22T14:44:31;8.90;99.90
32428;DHT22;18882;50.952;4.366;2023-11-22T14:46:57;9.00;99.90
32428;DHT22;18882;50.952;4.366;2023-11-22T14:49:24;9.00;99.90
32428;DHT22;18882;50.952;4.366;2023-11-22T14:51:51;9.00;99.90
32428;DHT22;18882;50.952;4.366;2023-11-22T14:54:16;9.00;99.90
32428;DHT22;18882;50.952;4.366;2023-11-22T14:56:42;8.90;99.90
32428;DHT22;18882;50.952;4.366;2023-11-22T14:59:09;8.80;99.90
32428;DHT22;18882;50.952;4.366;2023-11-22T15:01:35;8.80;99.90
32428;DHT22;18882;50.952;4.366;2023-11-22T15:04:01;8.70;99.90
32428;DHT22;18882;50.952;4.366;2023-11-22T15:06:27;8.60;99.90
32428;DHT22;18882;50.952;4.366;2023-11-22T15:08:53;8.70;99.90
32428;DHT22;18882;50.952;4.366;2023-11-22T15:11:18;8.80;99.90
32428;DHT22;18882;50.952;4.366;2023-11-22T15:13:44;8.70;99.90
32428;DHT22;18882;50.952;4.366;2023-11-22T15:16:10;8.60;99.90
32428;DHT22;18882;50.952;4.366;2023-11-22T15:18:41;8.50;99.90
32428;DHT22;18882;50.952;4.366;2023-11-22T15:21:07;8.40;99.90
32428;DHT22;18882;50.952;4.366;2023-11-22T15:23:33;8.40;99.90
32428;DHT22;18882;50.952;4.366;2023-11-22T15:25:59;8.50;99.90
32428;DHT22;18882;50.952;4.366;2023-11-22T15:28:25;8.50;99.90
32428;DHT22;18882;50.952;4.366;2023-11-22T15:30:52;8.60;99.90
32428;DHT22;18882;50.952;4.366;2023-11-22T15:33:25;8.70;99.90
32428;DHT22;18882;50.952;4.366;2023-11-22T15:35:52;8.60;99.90
32428;DHT22;18882;50.952;4.366;2023-11-22T15:38:18;8.60;99.90
32428;DHT22;18882;50.952;4.366;2023-11-22T15:40:44;8.40;99.90
32428;DHT22;18882;50.952;4.366;2023-11-22T15:43:10;8.40;99.90
32428;DHT22;18882;50.952;4.366;2023-11-22T15:45:37;8.40;99.90
32428;DHT22;18882;50.952;4.366;2023-11-22T15:48:05;8.40;99.90
32428;DHT22;18882;50.952;4.366;2023-11-22T15:50:31;8.40;99.90
32428;DHT22;18882;50.952;4.366;2023-11-22T15:52:58;8.40;99.90